createdAt,value
2018-08-18T00:00:16.001Z,20.20
2018-08-18T00:02:44.526Z,20.10
2018-08-18T00:05:14.231Z,20.00
2018-08-18T00:07:43.041Z,20.00
2018-08-18T00:10:15.178Z,20.00
2018-08-18T00:12:43.700Z,20.00
2018-08-18T00:15:12.169Z,19.90
2018-08-18T00:17:40.539Z,19.80
2018-08-18T00:20:18.097Z,19.80
2018-08-18T00:22:46.508Z,20.00
2018-08-18T00:25:14.915Z,19.90
2018-08-18T00:27:43.300Z,20.00
2018-08-18T00:30:17.281Z,20.10
2018-08-18T00:32:45.666Z,20.00
2018-08-18T00:35:14.118Z,20.00
2018-08-18T00:37:42.533Z,19.90
2018-08-18T00:40:11.533Z,19.80
2018-08-18T00:42:40.189Z,19.70
2018-08-18T00:45:10.873Z,19.70
2018-08-18T00:47:39.561Z,19.70
2018-08-18T00:50:08.908Z,19.70
2018-08-18T00:52:37.511Z,19.80
2018-08-18T00:55:05.967Z,19.90
2018-08-18T00:57:34.313Z,19.80
2018-08-18T01:00:02.872Z,19.70
2018-08-18T01:02:31.276Z,19.70
2018-08-18T01:05:00.836Z,19.80
2018-08-18T01:07:30.384Z,19.90
2018-08-18T01:09:59.156Z,19.90
2018-08-18T01:12:28.129Z,19.90
2018-08-18T01:14:56.848Z,20.00
2018-08-18T01:17:25.362Z,19.90
2018-08-18T01:19:55.481Z,20.00
2018-08-18T01:22:23.866Z,20.00
2018-08-18T01:24:52.782Z,20.10
2018-08-18T01:27:21.379Z,20.00
2018-08-18T01:29:56.085Z,19.90
2018-08-18T01:32:24.721Z,19.90
2018-08-18T01:34:53.767Z,19.90
2018-08-18T01:37:22.110Z,20.00
2018-08-18T01:39:52.944Z,19.90
2018-08-18T01:42:21.466Z,19.80
2018-08-18T01:44:52.756Z,19.60
2018-08-18T01:47:21.345Z,19.70
2018-08-18T01:49:49.718Z,19.90
2018-08-18T01:52:20.080Z,20.10
2018-08-18T01:54:48.497Z,20.10
2018-08-18T01:57:19.988Z,20.10
2018-08-18T01:59:48.622Z,19.80
2018-08-18T02:02:20.550Z,19.70
2018-08-18T02:04:49.451Z,19.70
2018-08-18T02:07:25.071Z,19.80
2018-08-18T02:09:53.975Z,19.90
2018-08-18T02:12:22.709Z,19.80
2018-08-18T02:14:51.190Z,19.80
2018-08-18T02:17:35.986Z,19.80
2018-08-18T02:20:06.842Z,20.00
2018-08-18T02:22:35.153Z,19.80
2018-08-18T02:25:03.985Z,19.80
2018-08-18T02:27:32.341Z,19.90
2018-08-18T02:30:22.732Z,19.80
2018-08-18T02:32:51.085Z,19.70
2018-08-18T02:35:20.729Z,19.80
2018-08-18T02:37:49.165Z,19.90
2018-08-18T02:40:18.095Z,19.80
2018-08-18T02:42:46.496Z,19.80
2018-08-18T02:45:15.516Z,19.90
2018-08-18T02:47:43.825Z,20.00
2018-08-18T02:50:13.378Z,20.00
2018-08-18T02:52:41.703Z,20.10
2018-08-18T02:55:13.044Z,20.00
2018-08-18T02:57:44.021Z,19.90
2018-08-18T03:00:23.420Z,19.90
2018-08-18T03:02:51.807Z,19.80
2018-08-18T03:05:20.183Z,19.90
2018-08-18T03:07:49.427Z,19.80
2018-08-18T03:10:23.215Z,19.80
2018-08-18T03:16:14.173Z,19.70
2018-08-18T03:18:49.881Z,19.70
2018-08-18T03:21:24.892Z,19.80
2018-08-18T03:24:07.639Z,19.80
2018-08-18T03:26:39.517Z,19.60
2018-08-18T03:29:08.140Z,19.50
2018-08-18T03:31:37.625Z,19.50
2018-08-18T03:34:06.373Z,19.70
2018-08-18T03:36:39.109Z,19.70
2018-08-18T03:39:17.050Z,19.80
2018-08-18T03:41:45.768Z,19.80
2018-08-18T03:44:14.144Z,19.80
2018-08-18T03:46:42.514Z,19.70
2018-08-18T03:49:10.857Z,19.60
2018-08-18T03:51:46.065Z,19.50
2018-08-18T03:54:17.445Z,19.50
2018-08-18T03:56:47.033Z,19.40
2018-08-18T03:59:15.490Z,19.40
2018-08-18T04:01:51.255Z,19.50
2018-08-18T04:04:20.810Z,19.50
2018-08-18T04:06:50.440Z,19.40
2018-08-18T04:09:22.996Z,19.40
2018-08-18T04:11:51.766Z,19.40
2018-08-18T04:14:27.194Z,19.30
2018-08-18T04:16:56.414Z,19.30
2018-08-18T04:19:24.818Z,19.30
2018-08-18T04:21:54.074Z,19.40
2018-08-18T04:24:27.438Z,19.30
2018-08-18T04:26:55.780Z,19.10
2018-08-18T04:29:24.081Z,19.10
2018-08-18T04:31:52.466Z,19.10
2018-08-18T04:34:20.781Z,19.10
2018-08-18T04:36:49.114Z,19.00
2018-08-18T04:39:17.395Z,18.90
2018-08-18T04:41:45.722Z,18.80
2018-08-18T04:44:14.045Z,18.80
2018-08-18T04:46:42.368Z,18.80
2018-08-18T04:49:10.702Z,18.90
2018-08-18T04:51:39.083Z,19.00
2018-08-18T04:54:08.084Z,19.10
2018-08-18T04:56:36.433Z,19.00
2018-08-18T04:59:04.929Z,19.00
2018-08-18T05:01:33.480Z,19.00
2018-08-18T05:04:06.729Z,19.00
2018-08-18T05:06:36.886Z,19.00
2018-08-18T05:09:09.184Z,19.00
2018-08-18T05:11:37.721Z,19.10
2018-08-18T05:14:06.590Z,19.20
2018-08-18T05:16:35.102Z,19.20
2018-08-18T05:19:03.491Z,19.20
2018-08-18T05:21:31.846Z,19.20
2018-08-18T05:24:20.594Z,19.20
2018-08-18T05:26:49.606Z,19.00
2018-08-18T05:29:17.928Z,18.90
2018-08-18T05:31:46.695Z,18.90
2018-08-18T05:34:15.161Z,19.00
2018-08-18T05:36:44.315Z,19.20
2018-08-18T05:39:12.735Z,19.30
2018-08-18T05:41:41.129Z,19.30
2018-08-18T05:44:09.543Z,19.30
2018-08-18T05:46:37.867Z,19.30
2018-08-18T05:49:13.391Z,19.40
2018-08-18T05:51:44.373Z,19.40
2018-08-18T05:54:15.042Z,19.30
2018-08-18T05:56:44.639Z,19.50
2018-08-18T05:59:12.991Z,19.70
2018-08-18T06:01:41.779Z,19.70
2018-08-18T06:04:12.131Z,19.70
2018-08-18T06:06:41.502Z,19.80
2018-08-18T06:09:11.418Z,19.80
2018-08-18T06:11:39.998Z,19.70
2018-08-18T06:14:09.427Z,19.40
2018-08-18T06:16:37.991Z,19.20
2018-08-18T06:19:06.561Z,19.20
2018-08-18T06:21:35.053Z,19.20
2018-08-18T06:24:03.503Z,19.20
2018-08-18T06:26:31.952Z,19.20
2018-08-18T06:29:00.328Z,19.40
2018-08-18T06:31:28.685Z,19.50
2018-08-18T06:33:57.062Z,19.50
2018-08-18T06:36:25.612Z,19.40
2018-08-18T06:38:53.996Z,19.30
2018-08-18T06:41:22.454Z,19.30
2018-08-18T06:43:50.786Z,19.30
2018-08-18T06:46:19.168Z,19.40
2018-08-18T06:48:47.486Z,19.20
2018-08-18T06:51:15.928Z,19.10
2018-08-18T06:53:48.491Z,19.00
2018-08-18T06:56:16.909Z,19.10
2018-08-18T06:58:45.533Z,19.40
2018-08-18T07:01:14.045Z,19.60
2018-08-18T07:03:45.017Z,19.30
2018-08-18T07:06:14.797Z,19.30
2018-08-18T07:08:48.854Z,19.20
2018-08-18T07:11:17.260Z,19.20
2018-08-18T07:13:46.791Z,19.10
2018-08-18T07:16:15.382Z,19.10
2018-08-18T07:18:43.786Z,19.20
2018-08-18T07:21:12.428Z,19.20
2018-08-18T07:23:41.122Z,19.20
2018-08-18T07:26:10.645Z,19.10
2018-08-18T07:28:39.212Z,19.20
2018-08-18T07:31:07.709Z,19.40
2018-08-18T07:33:36.276Z,19.40
2018-08-18T07:36:04.871Z,19.70
2018-08-18T07:38:41.759Z,19.70
2018-08-18T07:41:10.232Z,19.70
2018-08-18T07:43:40.232Z,19.70
2018-08-18T07:46:08.713Z,19.50
2018-08-18T07:48:38.222Z,19.60
2018-08-18T07:51:06.709Z,19.30
2018-08-18T07:53:35.196Z,19.40
2018-08-18T07:56:03.597Z,19.40
2018-08-18T07:58:38.734Z,19.50
2018-08-18T08:01:07.505Z,19.60
2018-08-18T08:03:36.094Z,19.70
2018-08-18T08:06:04.490Z,19.70
2018-08-18T08:08:38.546Z,19.70
2018-08-18T08:11:11.487Z,19.70
2018-08-18T08:13:39.950Z,19.70
2018-08-18T08:16:08.748Z,19.70
2018-08-18T08:18:38.482Z,19.80
2018-08-18T08:21:07.126Z,20.10
2018-08-18T08:23:35.781Z,20.20
2018-08-18T08:26:11.160Z,20.20
2018-08-18T08:28:50.294Z,20.20
2018-08-18T08:31:18.986Z,20.30
2018-08-18T08:33:51.399Z,20.40
2018-08-18T08:36:33.556Z,20.60
2018-08-18T08:39:05.426Z,20.60
2018-08-18T08:41:46.182Z,20.90
2018-08-18T08:44:14.825Z,21.10
2018-08-18T08:46:59.916Z,21.20
2018-08-18T08:49:28.409Z,21.10
2018-08-18T08:51:56.910Z,21.00
2018-08-18T08:54:30.998Z,20.80
2018-08-18T08:57:03.339Z,20.90
2018-08-18T08:59:33.130Z,21.00
2018-08-18T09:02:03.605Z,21.20
2018-08-18T09:04:33.553Z,21.30
2018-08-18T09:07:04.003Z,21.40
2018-08-18T09:09:32.565Z,21.50
2018-08-18T09:12:01.751Z,21.60
2018-08-18T09:14:31.642Z,21.60
2018-08-18T09:17:00.226Z,21.70
2018-08-18T09:19:28.942Z,21.60
2018-08-18T09:22:01.076Z,21.60
2018-08-18T09:24:30.670Z,21.70
2018-08-18T09:27:02.292Z,21.70
2018-08-18T09:29:48.508Z,21.90
2018-08-18T09:32:18.099Z,21.80
2018-08-18T09:34:53.256Z,21.90
2018-08-18T09:37:22.270Z,22.10
2018-08-18T09:39:50.644Z,22.10
2018-08-18T09:42:19.762Z,22.20
2018-08-18T09:44:49.601Z,22.30
2018-08-18T09:47:18.013Z,22.50
2018-08-18T09:49:46.433Z,22.60
2018-08-18T09:52:18.903Z,22.60
2018-08-18T09:54:47.368Z,22.40
2018-08-18T09:57:15.822Z,22.50
2018-08-18T09:59:44.189Z,22.70
2018-08-18T10:02:13.486Z,22.80
2018-08-18T10:04:41.901Z,22.80
2018-08-18T10:07:10.469Z,22.70
2018-08-18T10:09:38.829Z,22.80
2018-08-18T10:12:07.325Z,22.80
2018-08-18T10:14:35.724Z,22.90
2018-08-18T10:17:04.121Z,23.00
2018-08-18T10:19:33.394Z,22.90
2018-08-18T10:22:01.799Z,23.00
2018-08-18T10:24:30.230Z,23.10
2018-08-18T10:27:05.631Z,23.00
2018-08-18T10:29:34.000Z,23.00
2018-08-18T10:32:02.450Z,23.10
2018-08-18T10:34:32.010Z,23.20
2018-08-18T10:37:01.869Z,23.20
2018-08-18T10:39:30.282Z,23.30
2018-08-18T10:42:14.767Z,23.20
2018-08-18T10:44:50.058Z,23.40
2018-08-18T10:47:19.841Z,23.50
2018-08-18T10:50:05.102Z,23.40
2018-08-18T10:52:50.276Z,23.40
2018-08-18T10:55:20.052Z,23.60
2018-08-18T10:57:59.513Z,23.80
2018-08-18T11:00:31.642Z,23.70
2018-08-18T11:03:04.303Z,23.70
2018-08-18T11:05:32.946Z,23.80
2018-08-18T11:08:05.369Z,23.70
2018-08-18T11:10:36.601Z,23.90
2018-08-18T11:13:05.244Z,24.00
2018-08-18T11:15:33.690Z,23.90
2018-08-18T11:18:02.182Z,24.10
2018-08-18T11:20:31.877Z,24.10
2018-08-18T11:23:06.379Z,24.20
2018-08-18T11:25:41.365Z,24.10
2018-08-18T11:28:17.426Z,24.20
2018-08-18T11:30:45.896Z,24.30
2018-08-18T11:33:34.744Z,24.20
2018-08-18T11:36:04.189Z,24.10
2018-08-18T11:38:33.474Z,24.00
2018-08-18T11:41:01.868Z,24.20
2018-08-18T11:43:33.997Z,24.20
2018-08-18T11:46:02.383Z,24.30
2018-08-18T11:48:31.202Z,24.40
2018-08-18T11:50:59.608Z,24.20
2018-08-18T11:53:27.969Z,24.00
2018-08-18T11:55:56.341Z,24.00
2018-08-18T11:58:24.820Z,24.20
2018-08-18T12:00:55.541Z,24.30
2018-08-18T12:03:27.182Z,24.40
2018-08-18T12:05:56.709Z,24.60
2018-08-18T12:08:27.093Z,24.80
2018-08-18T12:10:57.081Z,24.90
2018-08-18T12:13:31.401Z,24.90
2018-08-18T12:16:06.301Z,24.80
2018-08-18T12:18:35.076Z,24.80
2018-08-18T12:21:04.287Z,24.90
2018-08-18T12:23:35.252Z,25.00
2018-08-18T12:26:07.039Z,25.00
2018-08-18T12:28:49.457Z,24.80
2018-08-18T12:31:20.177Z,24.80
2018-08-18T12:33:48.790Z,24.80
2018-08-18T12:36:17.362Z,25.00
2018-08-18T12:38:49.359Z,24.90
2018-08-18T12:41:17.740Z,24.90
2018-08-18T12:43:50.293Z,25.10
2018-08-18T12:46:20.801Z,25.20
2018-08-18T12:48:50.617Z,25.10
2018-08-18T12:51:19.663Z,25.30
2018-08-18T12:53:56.649Z,25.50
2018-08-18T12:56:27.196Z,25.60
2018-08-18T12:58:55.798Z,25.60
2018-08-18T13:01:45.505Z,25.60
2018-08-18T13:04:18.701Z,25.70
2018-08-18T13:06:49.132Z,25.80
2018-08-18T13:09:19.220Z,25.90
2018-08-18T13:11:49.584Z,26.00
2018-08-18T13:14:21.278Z,25.80
2018-08-18T13:16:49.618Z,26.10
2018-08-18T13:19:20.151Z,26.20
2018-08-18T13:21:48.545Z,26.20
2018-08-18T13:24:17.044Z,26.10
2018-08-18T13:26:45.430Z,26.10
2018-08-18T13:29:13.933Z,26.30
2018-08-18T13:31:43.209Z,26.50
2018-08-18T13:34:13.125Z,26.40
2018-08-18T13:36:42.633Z,26.30
2018-08-18T13:39:15.280Z,26.20
2018-08-18T13:41:44.675Z,26.30
2018-08-18T13:44:30.510Z,26.30
2018-08-18T13:46:59.000Z,26.40
2018-08-18T13:49:27.644Z,26.60
2018-08-18T13:51:56.409Z,26.60
2018-08-18T13:54:24.791Z,26.70
2018-08-18T13:56:53.189Z,26.80
2018-08-18T13:59:38.791Z,26.90
2018-08-18T14:02:08.150Z,26.90
2018-08-18T14:04:39.216Z,26.80
2018-08-18T14:07:08.166Z,26.90
2018-08-18T14:09:36.505Z,26.80
2018-08-18T14:12:10.462Z,26.80
2018-08-18T14:14:38.882Z,26.70
2018-08-18T14:17:07.604Z,26.80
2018-08-18T14:19:35.970Z,26.80
2018-08-18T14:22:07.848Z,26.90
2018-08-18T14:24:37.390Z,27.00
2018-08-18T14:27:13.163Z,27.00
2018-08-18T14:29:41.645Z,27.00
2018-08-18T14:32:17.986Z,27.20
2018-08-18T14:34:56.074Z,27.20
2018-08-18T14:37:24.452Z,27.20
2018-08-18T14:39:52.893Z,27.30
2018-08-18T14:42:21.323Z,27.10
2018-08-18T14:44:49.805Z,27.10
2018-08-18T14:47:18.177Z,27.10
2018-08-18T14:49:46.588Z,27.20
2018-08-18T14:52:15.022Z,27.20
2018-08-18T14:54:43.352Z,27.30
2018-08-18T14:57:11.718Z,27.30
2018-08-18T14:59:40.137Z,27.30
2018-08-18T15:02:08.508Z,27.40
2018-08-18T15:04:36.923Z,27.50
2018-08-18T15:07:05.463Z,27.60
2018-08-18T15:09:42.256Z,28.10
2018-08-18T15:12:10.650Z,28.30
2018-08-18T15:14:39.084Z,28.00
2018-08-18T15:17:08.179Z,28.30
2018-08-18T15:19:36.584Z,28.20
2018-08-18T15:22:09.381Z,28.20
2018-08-18T15:24:38.062Z,28.40
2018-08-18T15:27:06.710Z,28.20
2018-08-18T15:29:35.231Z,28.60
2018-08-18T15:32:03.821Z,28.70
2018-08-18T15:34:32.145Z,28.40
2018-08-18T15:37:00.724Z,28.70
2018-08-18T15:39:29.378Z,27.90
2018-08-18T15:41:59.243Z,27.50
2018-08-18T15:44:27.569Z,27.60
2018-08-18T15:46:56.340Z,27.50
2018-08-18T15:49:24.743Z,27.60
2018-08-18T15:51:53.519Z,27.60
2018-08-18T15:54:24.116Z,27.70
2018-08-18T15:56:52.633Z,27.80
2018-08-18T15:59:21.070Z,28.10
2018-08-18T16:01:49.499Z,28.20
2018-08-18T16:04:17.907Z,28.50
2018-08-18T16:06:46.623Z,28.30
2018-08-18T16:09:15.020Z,27.60
2018-08-18T16:11:43.416Z,27.50
2018-08-18T16:14:11.822Z,27.40
2018-08-18T16:17:00.324Z,27.40
2018-08-18T16:19:34.023Z,27.40
2018-08-18T16:22:03.146Z,27.30
2018-08-18T16:24:44.282Z,27.30
2018-08-18T16:27:13.100Z,27.30
2018-08-18T16:29:41.744Z,27.30
2018-08-18T16:32:27.470Z,27.30
2018-08-18T16:35:01.794Z,27.20
2018-08-18T16:37:30.831Z,27.10
2018-08-18T16:39:59.355Z,27.00
2018-08-18T16:42:27.893Z,26.90
2018-08-18T16:44:56.241Z,26.70
2018-08-18T16:47:24.624Z,26.70
2018-08-18T16:49:53.033Z,26.80
2018-08-18T16:52:21.368Z,26.90
2018-08-18T16:54:49.691Z,26.90
2018-08-18T16:57:18.048Z,26.80
2018-08-18T16:59:46.418Z,26.70
2018-08-18T17:02:33.402Z,26.60
2018-08-18T17:05:01.787Z,26.70
2018-08-18T17:07:30.224Z,26.50
2018-08-18T17:09:58.537Z,26.50
2018-08-18T17:12:29.130Z,26.50
2018-08-18T17:14:57.493Z,26.40
2018-08-18T17:17:26.300Z,26.50
2018-08-18T17:19:54.666Z,26.50
2018-08-18T17:22:23.044Z,26.50
2018-08-18T17:24:51.432Z,26.40
2018-08-18T17:27:19.780Z,26.40
2018-08-18T17:29:49.746Z,26.30
2018-08-18T17:32:18.210Z,26.30
2018-08-18T17:34:46.581Z,26.20
2018-08-18T17:37:14.995Z,26.20
2018-08-18T17:39:43.390Z,26.20
2018-08-18T17:42:18.488Z,26.00
2018-08-18T17:44:46.974Z,26.00
2018-08-18T17:47:15.417Z,26.00
2018-08-18T17:49:49.306Z,26.00
2018-08-18T17:52:17.641Z,25.90
2018-08-18T17:55:18.732Z,25.80
2018-08-18T17:57:47.081Z,25.80
2018-08-18T18:00:18.655Z,25.80
2018-08-18T18:02:53.450Z,25.80
2018-08-18T18:05:26.744Z,25.80
2018-08-18T18:08:00.701Z,25.80
2018-08-18T18:10:35.959Z,25.70
2018-08-18T18:13:15.902Z,25.60
2018-08-18T18:15:45.707Z,25.60
2018-08-18T18:18:16.679Z,25.60
2018-08-18T18:20:47.393Z,25.60
2018-08-18T18:23:16.297Z,25.60
2018-08-18T18:25:44.809Z,25.50
2018-08-18T18:28:13.208Z,25.50
2018-08-18T18:30:41.657Z,25.40
2018-08-18T18:33:10.865Z,25.40
2018-08-18T18:35:39.537Z,25.40
2018-08-18T18:38:08.038Z,25.30
2018-08-18T18:40:42.518Z,25.20
2018-08-18T18:43:10.902Z,25.20
2018-08-18T18:45:39.467Z,25.20
2018-08-18T18:48:11.286Z,25.10
2018-08-18T18:50:39.800Z,25.20
2018-08-18T18:53:08.220Z,25.10
2018-08-18T18:55:52.924Z,24.90
2018-08-18T18:58:21.366Z,25.00
2018-08-18T19:01:27.426Z,25.00
2018-08-18T19:03:55.824Z,24.90
2018-08-18T19:06:24.203Z,24.80
2018-08-18T19:09:00.641Z,24.80
2018-08-18T19:11:29.265Z,24.70
2018-08-18T19:13:58.661Z,24.70
2018-08-18T19:16:27.166Z,24.70
2018-08-18T19:18:55.439Z,24.60
2018-08-18T19:21:30.895Z,24.60
2018-08-18T19:24:00.559Z,24.60
2018-08-18T19:26:45.440Z,24.60
2018-08-18T19:29:13.752Z,24.60
2018-08-18T19:31:42.124Z,24.50
2018-08-18T19:34:13.433Z,24.60
2018-08-18T19:36:55.937Z,24.60
2018-08-18T19:39:26.907Z,24.50
2018-08-18T19:42:10.207Z,24.50
2018-08-18T19:44:42.267Z,24.50
2018-08-18T19:47:10.807Z,24.50
2018-08-18T19:49:45.652Z,24.50
2018-08-18T19:52:15.090Z,24.40
2018-08-18T19:54:49.446Z,24.30
2018-08-18T19:57:24.833Z,24.20
2018-08-18T19:59:54.602Z,24.30
2018-08-18T20:02:22.957Z,24.20
2018-08-18T20:04:51.373Z,23.90
2018-08-18T20:07:19.971Z,23.90
2018-08-18T20:09:48.638Z,23.80
2018-08-18T20:12:17.033Z,23.60
2018-08-18T20:14:45.429Z,23.60
2018-08-18T20:17:13.769Z,23.60
2018-08-18T20:19:42.557Z,23.60
2018-08-18T20:22:15.526Z,23.60
2018-08-18T20:24:43.965Z,23.70
2018-08-18T20:27:12.329Z,23.70
2018-08-18T20:29:41.063Z,23.70
2018-08-18T20:32:09.850Z,23.60
2018-08-18T20:34:38.430Z,23.60
2018-08-18T20:37:06.814Z,23.60
2018-08-18T20:39:35.638Z,23.60
2018-08-18T20:42:04.050Z,23.50
2018-08-18T20:44:32.353Z,23.50
2018-08-18T20:47:00.795Z,23.40
2018-08-18T20:49:29.130Z,23.40
2018-08-18T20:51:57.518Z,23.30
2018-08-18T20:54:25.841Z,23.30
2018-08-18T20:56:54.205Z,23.30
2018-08-18T20:59:22.623Z,23.30
2018-08-18T21:01:50.980Z,23.20
2018-08-18T21:04:19.390Z,23.20
2018-08-18T21:06:47.788Z,23.20
2018-08-18T21:09:31.929Z,23.20
2018-08-18T21:12:00.317Z,23.20
2018-08-18T21:14:29.918Z,23.20
2018-08-18T21:16:58.354Z,23.10
2018-08-18T21:19:27.344Z,23.10
2018-08-18T21:21:56.454Z,23.10
2018-08-18T21:24:24.695Z,23.00
2018-08-18T21:26:53.117Z,23.00
2018-08-18T21:29:23.644Z,23.10
2018-08-18T21:31:52.076Z,23.20
2018-08-18T21:34:20.571Z,23.20
2018-08-18T21:36:48.920Z,23.20
2018-08-18T21:39:18.335Z,23.20
2018-08-18T21:41:47.525Z,23.10
2018-08-18T21:44:16.064Z,23.10
2018-08-18T21:46:44.564Z,23.00
2018-08-18T21:49:13.150Z,22.90
2018-08-18T21:51:41.578Z,22.80
2018-08-18T21:54:10.016Z,22.70
2018-08-18T21:56:41.542Z,22.70
2018-08-18T21:59:11.166Z,22.80
2018-08-18T22:01:39.800Z,22.70
2018-08-18T22:04:09.208Z,22.80
2018-08-18T22:06:37.729Z,22.70
2018-08-18T22:09:33.065Z,22.70
2018-08-18T22:12:01.848Z,22.70
2018-08-18T22:14:30.187Z,22.60
2018-08-18T22:16:58.657Z,22.60
2018-08-18T22:19:28.561Z,22.50
2018-08-18T22:21:57.006Z,22.50
2018-08-18T22:24:25.443Z,22.40
2018-08-18T22:26:53.827Z,22.50
2018-08-18T22:29:25.180Z,22.70
2018-08-18T22:31:53.657Z,22.70
2018-08-18T22:34:22.091Z,22.70
2018-08-18T22:36:54.054Z,22.80
2018-08-18T22:39:22.468Z,22.90
2018-08-18T22:41:50.856Z,22.80
2018-08-18T22:44:19.194Z,22.70
2018-08-18T22:46:47.547Z,22.60
2018-08-18T22:49:15.870Z,22.80
2018-08-18T22:51:44.314Z,22.80
2018-08-18T22:54:12.661Z,22.90
2018-08-18T22:56:41.569Z,23.00
2018-08-18T22:59:09.905Z,23.00
2018-08-18T23:01:38.235Z,22.90
2018-08-18T23:04:27.793Z,22.90
2018-08-18T23:06:56.795Z,22.90
2018-08-18T23:09:25.417Z,22.70
2018-08-18T23:11:54.805Z,22.70
2018-08-18T23:14:23.293Z,22.60
2018-08-18T23:16:52.340Z,22.50
2018-08-18T23:19:20.958Z,22.40
2018-08-18T23:21:49.336Z,22.40
2018-08-18T23:24:28.966Z,22.50
2018-08-18T23:26:57.726Z,22.50
2018-08-18T23:29:26.256Z,22.40
2018-08-18T23:31:55.101Z,22.50
2018-08-18T23:34:23.713Z,22.60
2018-08-18T23:36:52.634Z,22.70
2018-08-18T23:39:20.993Z,22.60
2018-08-18T23:42:00.438Z,22.60
2018-08-18T23:44:29.082Z,22.60
2018-08-18T23:46:57.430Z,22.60
2018-08-18T23:49:25.752Z,22.60
2018-08-18T23:51:54.206Z,22.50
2018-08-18T23:54:23.500Z,22.40
2018-08-18T23:56:52.504Z,22.30
2018-08-18T23:59:22.775Z,22.30
